sensor_id;sensor_type;location;lat;lon;timestamp;temperature;humidity
62573;DHT22;48626;51.678;5.806;2023-07-13T00:01:47;16.60;99.90
62573;DHT22;48626;51.678;5.806;2023-07-13T00:04:18;16.60;99.90
62573;DHT22;48626;51.678;5.806;2023-07-13T00:06:45;16.50;99.90
62573;DHT22;48626;51.678;5.806;2023-07-13T00:09:12;16.50;99.90
62573;DHT22;48626;51.678;5.806;2023-07-13T00:11:39;16.50;99.90
62573;DHT22;48626;51.678;5.806;2023-07-13T00:14:05;16.50;99.90
62573;DHT22;48626;51.678;5.806;2023-07-13T00:16:32;16.40;99.90
62573;DHT22;48626;51.678;5.806;2023-07-13T00:18:58;16.40;99.90
62573;DHT22;48626;51.678;5.806;2023-07-13T00:21:25;16.40;99.90
62573;DHT22;48626;51.678;5.806;2023-07-13T00:23:51;16.30;99.90
62573;DHT22;48626;51.678;5.806;2023-07-13T00:26:17;16.30;99.90
62573;DHT22;48626;51.678;5.806;2023-07-13T00:28:42;16.30;99.90
62573;DHT22;48626;51.678;5.806;2023-07-13T00:31:10;16.30;99.90
62573;DHT22;48626;51.678;5.806;2023-07-13T00:33:36;16.30;99.90
62573;DHT22;48626;51.678;5.806;2023-07-13T00:36:02;16.30;99.90
62573;DHT22;48626;51.678;5.806;2023-07-13T00:38:28;16.20;99.90
62573;DHT22;48626;51.678;5.806;2023-07-13T00:40:54;16.20;99.90
62573;DHT22;48626;51.678;5.806;2023-07-13T00:43:22;16.20;99.90
62573;DHT22;48626;51.678;5.806;2023-07-13T00:48:18;16.20;99.90
62573;DHT22;48626;51.678;5.806;2023-07-13T00:50:48;16.20;99.90
62573;DHT22;48626;51.678;5.806;2023-07-13T00:53:15;16.20;99.90
62573;DHT22;48626;51.678;5.806;2023-07-13T00:55:41;16.10;99.90
62573;DHT22;48626;51.678;5.806;2023-07-13T00:58:06;16.00;99.90
62573;DHT22;48626;51.678;5.806;2023-07-13T01:00:35;16.10;99.90
62573;DHT22;48626;51.678;5.806;2023-07-13T01:03:02;16.00;99.90
62573;DHT22;48626;51.678;5.806;2023-07-13T01:05:32;16.00;99.90
62573;DHT22;48626;51.678;5.806;2023-07-13T01:07:59;16.00;99.90
62573;DHT22;48626;51.678;5.806;2023-07-13T01:10:26;16.00;99.90
62573;DHT22;48626;51.678;5.806;2023-07-13T01:12:52;15.90;99.90
62573;DHT22;48626;51.678;5.806;2023-07-13T01:15:42;15.90;99.90
62573;DHT22;48626;51.678;5.806;2023-07-13T01:18:11;15.90;99.90
62573;DHT22;48626;51.678;5.806;2023-07-13T01:20:37;15.90;99.90
62573;DHT22;48626;51.678;5.806;2023-07-13T01:23:06;15.90;99.90
62573;DHT22;48626;51.678;5.806;2023-07-13T01:25:32;15.90;99.90
62573;DHT22;48626;51.678;5.806;2023-07-13T01:27:59;15.80;99.90
62573;DHT22;48626;51.678;5.806;2023-07-13T01:30:24;15.90;99.90
62573;DHT22;48626;51.678;5.806;2023-07-13T01:32:50;15.90;99.90
62573;DHT22;48626;51.678;5.806;2023-07-13T01:35:15;15.80;99.90
62573;DHT22;48626;51.678;5.806;2023-07-13T01:37:42;15.80;99.90
62573;DHT22;48626;51.678;5.806;2023-07-13T01:40:09;15.80;99.90
62573;DHT22;48626;51.678;5.806;2023-07-13T01:42:35;15.80;99.90
62573;DHT22;48626;51.678;5.806;2023-07-13T01:45:00;15.80;99.90
62573;DHT22;48626;51.678;5.806;2023-07-13T01:47:26;15.80;99.90
62573;DHT22;48626;51.678;5.806;2023-07-13T01:49:53;15.70;99.90
62573;DHT22;48626;51.678;5.806;2023-07-13T01:52:18;15.70;99.90
62573;DHT22;48626;51.678;5.806;2023-07-13T01:54:44;15.70;99.90
62573;DHT22;48626;51.678;5.806;2023-07-13T01:57:09;15.70;99.90
62573;DHT22;48626;51.678;5.806;2023-07-13T01:59:35;15.70;99.90
62573;DHT22;48626;51.678;5.806;2023-07-13T02:02:01;15.70;99.90
62573;DHT22;48626;51.678;5.806;2023-07-13T02:04:26;15.60;99.90
62573;DHT22;48626;51.678;5.806;2023-07-13T02:06:52;15.60;99.90
62573;DHT22;48626;51.678;5.806;2023-07-13T02:09:18;15.60;99.90
62573;DHT22;48626;51.678;5.806;2023-07-13T02:11:43;15.50;99.90
62573;DHT22;48626;51.678;5.806;2023-07-13T02:14:09;15.50;99.90
62573;DHT22;48626;51.678;5.806;2023-07-13T02:16:34;15.50;99.90
62573;DHT22;48626;51.678;5.806;2023-07-13T02:19:00;15.50;99.90
62573;DHT22;48626;51.678;5.806;2023-07-13T02:21:26;15.50;99.90
62573;DHT22;48626;51.678;5.806;2023-07-13T02:23:51;15.40;99.90
62573;DHT22;48626;51.678;5.806;2023-07-13T02:26:18;15.40;99.90
62573;DHT22;48626;51.678;5.806;2023-07-13T02:28:44;15.40;99.90
62573;DHT22;48626;51.678;5.806;2023-07-13T02:31:13;15.40;99.90
62573;DHT22;48626;51.678;5.806;2023-07-13T02:33:39;15.30;99.90
62573;DHT22;48626;51.678;5.806;2023-07-13T02:36:06;15.30;99.90
62573;DHT22;48626;51.678;5.806;2023-07-13T02:38:33;15.30;99.90
62573;DHT22;48626;51.678;5.806;2023-07-13T02:40:59;15.30;99.90
62573;DHT22;48626;51.678;5.806;2023-07-13T02:43:25;15.30;99.90
62573;DHT22;48626;51.678;5.806;2023-07-13T02:45:51;15.30;99.90
62573;DHT22;48626;51.678;5.806;2023-07-13T02:48:16;15.20;99.90
62573;DHT22;48626;51.678;5.806;2023-07-13T02:50:43;15.20;99.90
62573;DHT22;48626;51.678;5.806;2023-07-13T02:53:09;15.20;99.90
62573;DHT22;48626;51.678;5.806;2023-07-13T02:55:35;15.20;99.90
62573;DHT22;48626;51.678;5.806;2023-07-13T02:58:01;15.10;99.90
62573;DHT22;48626;51.678;5.806;2023-07-13T03:00:27;15.20;99.90
62573;DHT22;48626;51.678;5.806;2023-07-13T03:02:53;15.10;99.90
62573;DHT22;48626;51.678;5.806;2023-07-13T03:05:22;15.10;99.90
62573;DHT22;48626;51.678;5.806;2023-07-13T03:07:48;15.10;99.90
62573;DHT22;48626;51.678;5.806;2023-07-13T03:10:13;15.10;99.90
62573;DHT22;48626;51.678;5.806;2023-07-13T03:12:39;15.10;99.90
62573;DHT22;48626;51.678;5.806;2023-07-13T03:15:05;15.00;99.90
62573;DHT22;48626;51.678;5.806;2023-07-13T03:17:31;15.00;99.90
62573;DHT22;48626;51.678;5.806;2023-07-13T03:19:56;15.00;99.90
62573;DHT22;48626;51.678;5.806;2023-07-13T03:22:22;15.00;99.90
62573;DHT22;48626;51.678;5.806;2023-07-13T03:24:48;15.00;99.90
62573;DHT22;48626;51.678;5.806;2023-07-13T03:27:14;15.00;99.90
62573;DHT22;48626;51.678;5.806;2023-07-13T03:29:40;15.00;99.90
62573;DHT22;48626;51.678;5.806;2023-07-13T03:32:06;15.00;99.90
62573;DHT22;48626;51.678;5.806;2023-07-13T03:34:32;15.00;99.90
62573;DHT22;48626;51.678;5.806;2023-07-13T03:36:58;15.00;99.90
62573;DHT22;48626;51.678;5.806;2023-07-13T03:39:23;14.90;99.90
62573;DHT22;48626;51.678;5.806;2023-07-13T03:41:49;15.00;99.90
62573;DHT22;48626;51.678;5.806;2023-07-13T03:44:18;14.90;99.90
62573;DHT22;48626;51.678;5.806;2023-07-13T03:46:45;14.90;99.90
62573;DHT22;48626;51.678;5.806;2023-07-13T03:49:11;14.90;99.90
62573;DHT22;48626;51.678;5.806;2023-07-13T03:51:36;14.90;99.90
62573;DHT22;48626;51.678;5.806;2023-07-13T03:54:03;14.90;99.90
62573;DHT22;48626;51.678;5.806;2023-07-13T03:56:29;14.90;99.90
62573;DHT22;48626;51.678;5.806;2023-07-13T03:58:56;14.90;99.90
62573;DHT22;48626;51.678;5.806;2023-07-13T04:01:23;14.90;99.90
62573;DHT22;48626;51.678;5.806;2023-07-13T04:03:50;14.90;99.90
62573;DHT22;48626;51.678;5.806;2023-07-13T04:06:23;14.90;99.90
62573;DHT22;48626;51.678;5.806;2023-07-13T04:08:54;14.90;99.90
62573;DHT22;48626;51.678;5.806;2023-07-13T04:11:22;15.00;99.90
62573;DHT22;48626;51.678;5.806;2023-07-13T04:13:49;15.00;99.90
62573;DHT22;48626;51.678;5.806;2023-07-13T04:16:16;15.00;99.90
62573;DHT22;48626;51.678;5.806;2023-07-13T04:18:42;15.00;99.90
62573;DHT22;48626;51.678;5.806;2023-07-13T04:21:08;15.00;99.90
62573;DHT22;48626;51.678;5.806;2023-07-13T04:23:35;15.00;99.90
62573;DHT22;48626;51.678;5.806;2023-07-13T04:26:01;15.00;99.90
62573;DHT22;48626;51.678;5.806;2023-07-13T04:28:26;15.00;99.90
62573;DHT22;48626;51.678;5.806;2023-07-13T04:30:53;15.10;99.90
62573;DHT22;48626;51.678;5.806;2023-07-13T04:33:19;15.10;99.90
62573;DHT22;48626;51.678;5.806;2023-07-13T04:35:52;15.10;99.90
62573;DHT22;48626;51.678;5.806;2023-07-13T04:38:22;15.10;99.90
62573;DHT22;48626;51.678;5.806;2023-07-13T04:40:50;15.20;99.90
62573;DHT22;48626;51.678;5.806;2023-07-13T04:43:16;15.20;99.90
62573;DHT22;48626;51.678;5.806;2023-07-13T04:45:42;15.40;99.90
62573;DHT22;48626;51.678;5.806;2023-07-13T04:48:07;15.50;99.90
62573;DHT22;48626;51.678;5.806;2023-07-13T04:50:36;15.70;99.90
62573;DHT22;48626;51.678;5.806;2023-07-13T04:53:02;15.90;99.90
62573;DHT22;48626;51.678;5.806;2023-07-13T04:55:29;16.00;99.90
62573;DHT22;48626;51.678;5.806;2023-07-13T04:57:56;16.20;99.90
62573;DHT22;48626;51.678;5.806;2023-07-13T05:00:24;16.30;99.90
62573;DHT22;48626;51.678;5.806;2023-07-13T05:02:50;16.40;99.90
62573;DHT22;48626;51.678;5.806;2023-07-13T05:05:16;16.40;99.90
62573;DHT22;48626;51.678;5.806;2023-07-13T05:07:42;16.50;99.90
62573;DHT22;48626;51.678;5.806;2023-07-13T05:10:08;16.60;99.90
62573;DHT22;48626;51.678;5.806;2023-07-13T05:12:34;16.70;99.90
62573;DHT22;48626;51.678;5.806;2023-07-13T05:15:00;16.80;99.90
62573;DHT22;48626;51.678;5.806;2023-07-13T05:17:26;16.90;99.90
62573;DHT22;48626;51.678;5.806;2023-07-13T05:19:52;16.90;99.90
62573;DHT22;48626;51.678;5.806;2023-07-13T05:22:17;17.00;99.90
62573;DHT22;48626;51.678;5.806;2023-07-13T05:24:43;17.10;99.90
62573;DHT22;48626;51.678;5.806;2023-07-13T05:27:08;17.20;99.90
62573;DHT22;48626;51.678;5.806;2023-07-13T05:29:34;17.20;99.90
62573;DHT22;48626;51.678;5.806;2023-07-13T05:32:00;17.30;99.90
62573;DHT22;48626;51.678;5.806;2023-07-13T05:34:26;17.40;99.90
62573;DHT22;48626;51.678;5.806;2023-07-13T05:36:52;17.40;99.90
62573;DHT22;48626;51.678;5.806;2023-07-13T05:39:18;17.50;99.90
62573;DHT22;48626;51.678;5.806;2023-07-13T05:41:44;17.60;99.90
62573;DHT22;48626;51.678;5.806;2023-07-13T05:44:10;17.60;99.90
62573;DHT22;48626;51.678;5.806;2023-07-13T05:46:35;17.70;99.90
62573;DHT22;48626;51.678;5.806;2023-07-13T05:49:01;17.70;99.90
62573;DHT22;48626;51.678;5.806;2023-07-13T05:51:26;17.70;99.90
62573;DHT22;48626;51.678;5.806;2023-07-13T05:53:52;17.70;99.90
62573;DHT22;48626;51.678;5.806;2023-07-13T05:56:18;17.80;99.90
62573;DHT22;48626;51.678;5.806;2023-07-13T05:58:43;17.70;99.90
62573;DHT22;48626;51.678;5.806;2023-07-13T06:01:11;17.80;99.90
62573;DHT22;48626;51.678;5.806;2023-07-13T06:03:37;17.90;99.90
62573;DHT22;48626;51.678;5.806;2023-07-13T06:06:04;17.90;99.90
62573;DHT22;48626;51.678;5.806;2023-07-13T06:08:31;18.10;99.90
62573;DHT22;48626;51.678;5.806;2023-07-13T06:11:22;18.20;99.90
62573;DHT22;48626;51.678;5.806;2023-07-13T06:13:49;18.30;99.90
62573;DHT22;48626;51.678;5.806;2023-07-13T06:16:15;18.40;99.90
62573;DHT22;48626;51.678;5.806;2023-07-13T06:18:41;18.50;99.90
62573;DHT22;48626;51.678;5.806;2023-07-13T06:21:15;18.50;99.90
62573;DHT22;48626;51.678;5.806;2023-07-13T06:23:41;18.60;99.90
62573;DHT22;48626;51.678;5.806;2023-07-13T06:26:07;18.70;99.90
62573;DHT22;48626;51.678;5.806;2023-07-13T06:28:34;18.80;99.90
62573;DHT22;48626;51.678;5.806;2023-07-13T06:31:00;19.00;99.90
62573;DHT22;48626;51.678;5.806;2023-07-13T06:33:26;19.00;99.90
62573;DHT22;48626;51.678;5.806;2023-07-13T06:35:52;19.10;99.90
62573;DHT22;48626;51.678;5.806;2023-07-13T06:38:20;19.10;99.90
62573;DHT22;48626;51.678;5.806;2023-07-13T06:40:46;19.10;99.90
62573;DHT22;48626;51.678;5.806;2023-07-13T06:43:12;19.30;99.90
62573;DHT22;48626;51.678;5.806;2023-07-13T06:45:43;19.40;99.90
62573;DHT22;48626;51.678;5.806;2023-07-13T06:48:11;19.50;99.90
62573;DHT22;48626;51.678;5.806;2023-07-13T06:50:37;19.50;99.90
62573;DHT22;48626;51.678;5.806;2023-07-13T06:53:02;19.50;99.90
62573;DHT22;48626;51.678;5.806;2023-07-13T06:55:28;19.60;99.90
62573;DHT22;48626;51.678;5.806;2023-07-13T06:57:53;19.40;99.90
62573;DHT22;48626;51.678;5.806;2023-07-13T07:00:19;19.30;99.90
62573;DHT22;48626;51.678;5.806;2023-07-13T07:02:45;19.30;99.90
62573;DHT22;48626;51.678;5.806;2023-07-13T07:05:10;19.40;99.90
62573;DHT22;48626;51.678;5.806;2023-07-13T07:07:36;19.50;99.90
62573;DHT22;48626;51.678;5.806;2023-07-13T07:10:02;19.70;99.90
62573;DHT22;48626;51.678;5.806;2023-07-13T07:12:28;19.80;99.90
62573;DHT22;48626;51.678;5.806;2023-07-13T07:14:54;19.90;99.90
62573;DHT22;48626;51.678;5.806;2023-07-13T07:17:20;20.00;99.90
62573;DHT22;48626;51.678;5.806;2023-07-13T07:19:45;20.10;99.90
62573;DHT22;48626;51.678;5.806;2023-07-13T07:22:11;20.10;99.90
62573;DHT22;48626;51.678;5.806;2023-07-13T07:24:37;20.10;99.90
62573;DHT22;48626;51.678;5.806;2023-07-13T07:27:03;20.10;99.90
62573;DHT22;48626;51.678;5.806;2023-07-13T07:29:28;20.10;99.90
62573;DHT22;48626;51.678;5.806;2023-07-13T07:31:54;20.00;99.90
62573;DHT22;48626;51.678;5.806;2023-07-13T07:34:20;19.90;99.90
62573;DHT22;48626;51.678;5.806;2023-07-13T07:36:45;19.90;99.90
62573;DHT22;48626;51.678;5.806;2023-07-13T07:39:11;20.00;99.90
62573;DHT22;48626;51.678;5.806;2023-07-13T07:41:37;20.00;99.90
62573;DHT22;48626;51.678;5.806;2023-07-13T07:44:04;19.90;99.90
62573;DHT22;48626;51.678;5.806;2023-07-13T07:46:30;20.00;99.90
62573;DHT22;48626;51.678;5.806;2023-07-13T07:48:56;20.10;99.90
62573;DHT22;48626;51.678;5.806;2023-07-13T07:51:22;20.20;99.90
62573;DHT22;48626;51.678;5.806;2023-07-13T07:53:48;20.40;99.90
62573;DHT22;48626;51.678;5.806;2023-07-13T07:56:14;20.60;99.90
62573;DHT22;48626;51.678;5.806;2023-07-13T07:58:42;20.80;99.90
62573;DHT22;48626;51.678;5.806;2023-07-13T08:01:08;20.90;99.90
62573;DHT22;48626;51.678;5.806;2023-07-13T08:03:33;21.00;99.90
62573;DHT22;48626;51.678;5.806;2023-07-13T08:05:59;21.00;99.90
62573;DHT22;48626;51.678;5.806;2023-07-13T08:08:25;21.10;99.90
62573;DHT22;48626;51.678;5.806;2023-07-13T08:10:51;21.30;99.90
62573;DHT22;48626;51.678;5.806;2023-07-13T08:13:17;21.40;99.90
62573;DHT22;48626;51.678;5.806;2023-07-13T08:15:42;21.50;99.90
62573;DHT22;48626;51.678;5.806;2023-07-13T08:18:08;21.60;99.90
62573;DHT22;48626;51.678;5.806;2023-07-13T08:20:40;21.70;99.90
62573;DHT22;48626;51.678;5.806;2023-07-13T08:23:07;21.90;99.90
62573;DHT22;48626;51.678;5.806;2023-07-13T08:25:34;22.20;99.90
62573;DHT22;48626;51.678;5.806;2023-07-13T08:28:00;22.20;99.90
62573;DHT22;48626;51.678;5.806;2023-07-13T08:30:27;22.20;99.90
62573;DHT22;48626;51.678;5.806;2023-07-13T08:32:53;22.20;99.90
62573;DHT22;48626;51.678;5.806;2023-07-13T08:35:19;22.20;99.90
62573;DHT22;48626;51.678;5.806;2023-07-13T08:37:44;22.30;99.90
62573;DHT22;48626;51.678;5.806;2023-07-13T08:40:11;22.40;99.90
62573;DHT22;48626;51.678;5.806;2023-07-13T08:42:42;22.50;99.90
62573;DHT22;48626;51.678;5.806;2023-07-13T08:45:33;22.70;99.90
62573;DHT22;48626;51.678;5.806;2023-07-13T08:48:26;22.90;99.90
62573;DHT22;48626;51.678;5.806;2023-07-13T08:51:04;22.90;99.90
62573;DHT22;48626;51.678;5.806;2023-07-13T08:53:40;22.80;99.90
62573;DHT22;48626;51.678;5.806;2023-07-13T08:56:15;22.60;99.90
62573;DHT22;48626;51.678;5.806;2023-07-13T08:58:42;22.50;99.90
62573;DHT22;48626;51.678;5.806;2023-07-13T09:04:14;22.50;99.90
62573;DHT22;48626;51.678;5.806;2023-07-13T09:07:05;22.50;99.90
62573;DHT22;48626;51.678;5.806;2023-07-13T09:15:24;22.40;99.90
62573;DHT22;48626;51.678;5.806;2023-07-13T09:17:51;22.30;99.90
62573;DHT22;48626;51.678;5.806;2023-07-13T09:22:50;22.50;99.90
62573;DHT22;48626;51.678;5.806;2023-07-13T09:25:30;22.70;99.90
62573;DHT22;48626;51.678;5.806;2023-07-13T09:28:05;22.90;99.90
62573;DHT22;48626;51.678;5.806;2023-07-13T09:31:12;23.00;99.90
62573;DHT22;48626;51.678;5.806;2023-07-13T09:33:39;22.90;99.90
62573;DHT22;48626;51.678;5.806;2023-07-13T09:36:22;22.90;99.90
62573;DHT22;48626;51.678;5.806;2023-07-13T09:39:04;23.00;99.90
62573;DHT22;48626;51.678;5.806;2023-07-13T09:41:53;23.20;99.90
62573;DHT22;48626;51.678;5.806;2023-07-13T09:44:35;23.60;99.90
62573;DHT22;48626;51.678;5.806;2023-07-13T09:47:02;24.00;99.90
62573;DHT22;48626;51.678;5.806;2023-07-13T09:49:35;24.20;99.90
62573;DHT22;48626;51.678;5.806;2023-07-13T09:52:12;24.30;99.90
62573;DHT22;48626;51.678;5.806;2023-07-13T09:54:39;24.20;99.90
62573;DHT22;48626;51.678;5.806;2023-07-13T09:57:14;24.10;99.90
62573;DHT22;48626;51.678;5.806;2023-07-13T09:59:44;24.10;99.90
62573;DHT22;48626;51.678;5.806;2023-07-13T10:02:30;24.00;99.90
62573;DHT22;48626;51.678;5.806;2023-07-13T10:05:06;24.20;99.90
62573;DHT22;48626;51.678;5.806;2023-07-13T10:07:38;24.30;99.90
62573;DHT22;48626;51.678;5.806;2023-07-13T10:10:14;24.60;99.90
62573;DHT22;48626;51.678;5.806;2023-07-13T10:12:40;24.80;99.90
62573;DHT22;48626;51.678;5.806;2023-07-13T10:15:21;24.70;99.90
62573;DHT22;48626;51.678;5.806;2023-07-13T10:17:48;24.80;99.90
62573;DHT22;48626;51.678;5.806;2023-07-13T10:20:14;24.90;99.90
62573;DHT22;48626;51.678;5.806;2023-07-13T10:23:02;25.30;99.90
62573;DHT22;48626;51.678;5.806;2023-07-13T10:25:35;25.60;99.90
62573;DHT22;48626;51.678;5.806;2023-07-13T10:28:25;26.10;99.90
62573;DHT22;48626;51.678;5.806;2023-07-13T10:30:53;26.40;99.90
62573;DHT22;48626;51.678;5.806;2023-07-13T10:33:21;26.50;99.90
62573;DHT22;48626;51.678;5.806;2023-07-13T10:35:48;26.70;99.90
62573;DHT22;48626;51.678;5.806;2023-07-13T10:38:21;26.60;99.90
62573;DHT22;48626;51.678;5.806;2023-07-13T10:43:38;26.20;99.90
62573;DHT22;48626;51.678;5.806;2023-07-13T10:46:08;26.30;99.90
62573;DHT22;48626;51.678;5.806;2023-07-13T10:48:35;26.50;99.90
62573;DHT22;48626;51.678;5.806;2023-07-13T10:51:04;26.50;99.90
62573;DHT22;48626;51.678;5.806;2023-07-13T10:53:37;26.80;99.90
62573;DHT22;48626;51.678;5.806;2023-07-13T10:56:50;27.60;99.90
62573;DHT22;48626;51.678;5.806;2023-07-13T11:04:29;27.10;99.90
62573;DHT22;48626;51.678;5.806;2023-07-13T11:07:11;27.20;99.90
62573;DHT22;48626;51.678;5.806;2023-07-13T11:09:43;27.10;99.90
62573;DHT22;48626;51.678;5.806;2023-07-13T11:17:45;25.80;99.90
62573;DHT22;48626;51.678;5.806;2023-07-13T11:22:46;24.80;99.90
62573;DHT22;48626;51.678;5.806;2023-07-13T11:30:49;22.30;99.90
62573;DHT22;48626;51.678;5.806;2023-07-13T11:36:00;21.60;99.90
62573;DHT22;48626;51.678;5.806;2023-07-13T11:38:28;21.70;99.90
62573;DHT22;48626;51.678;5.806;2023-07-13T11:40:56;21.70;99.90
62573;DHT22;48626;51.678;5.806;2023-07-13T11:43:24;21.60;99.90
62573;DHT22;48626;51.678;5.806;2023-07-13T11:45:50;21.70;99.90
62573;DHT22;48626;51.678;5.806;2023-07-13T11:48:36;21.60;99.90
62573;DHT22;48626;51.678;5.806;2023-07-13T11:51:04;21.60;99.90
62573;DHT22;48626;51.678;5.806;2023-07-13T11:53:44;21.50;99.90
62573;DHT22;48626;51.678;5.806;2023-07-13T11:56:11;21.40;99.90
62573;DHT22;48626;51.678;5.806;2023-07-13T11:58:36;21.20;99.90
62573;DHT22;48626;51.678;5.806;2023-07-13T12:01:03;20.90;99.90
62573;DHT22;48626;51.678;5.806;2023-07-13T12:03:33;20.60;99.90
62573;DHT22;48626;51.678;5.806;2023-07-13T12:06:02;20.40;99.90
62573;DHT22;48626;51.678;5.806;2023-07-13T12:08:31;20.40;99.90
62573;DHT22;48626;51.678;5.806;2023-07-13T12:10:59;20.60;99.90
62573;DHT22;48626;51.678;5.806;2023-07-13T12:13:27;20.80;99.90
62573;DHT22;48626;51.678;5.806;2023-07-13T12:15:54;21.10;99.90
62573;DHT22;48626;51.678;5.806;2023-07-13T12:18:23;22.00;99.90
62573;DHT22;48626;51.678;5.806;2023-07-13T12:20:57;22.90;99.90
62573;DHT22;48626;51.678;5.806;2023-07-13T12:23:24;22.70;99.90
62573;DHT22;48626;51.678;5.806;2023-07-13T12:25:51;22.50;99.90
62573;DHT22;48626;51.678;5.806;2023-07-13T12:30:48;22.40;99.90
62573;DHT22;48626;51.678;5.806;2023-07-13T12:33:16;22.40;99.90
62573;DHT22;48626;51.678;5.806;2023-07-13T12:35:47;22.80;99.90
62573;DHT22;48626;51.678;5.806;2023-07-13T12:38:15;24.30;99.90
62573;DHT22;48626;51.678;5.806;2023-07-13T12:40:41;25.80;99.90
62573;DHT22;48626;51.678;5.806;2023-07-13T12:43:15;27.10;99.90
62573;DHT22;48626;51.678;5.806;2023-07-13T12:46:04;28.00;99.90
62573;DHT22;48626;51.678;5.806;2023-07-13T12:48:38;29.10;99.90
62573;DHT22;48626;51.678;5.806;2023-07-13T12:51:04;29.50;99.90
62573;DHT22;48626;51.678;5.806;2023-07-13T12:53:40;29.30;99.90
62573;DHT22;48626;51.678;5.806;2023-07-13T12:56:15;30.00;99.90
62573;DHT22;48626;51.678;5.806;2023-07-13T12:58:43;29.60;99.90
62573;DHT22;48626;51.678;5.806;2023-07-13T13:01:13;29.30;99.90
62573;DHT22;48626;51.678;5.806;2023-07-13T13:08:46;28.50;99.90
62573;DHT22;48626;51.678;5.806;2023-07-13T13:11:14;28.40;99.90
62573;DHT22;48626;51.678;5.806;2023-07-13T13:13:42;28.20;99.90
62573;DHT22;48626;51.678;5.806;2023-07-13T13:16:26;28.20;99.90
62573;DHT22;48626;51.678;5.806;2023-07-13T13:18:56;28.80;99.90
62573;DHT22;48626;51.678;5.806;2023-07-13T13:21:24;28.50;99.90
62573;DHT22;48626;51.678;5.806;2023-07-13T13:23:50;28.00;99.90
62573;DHT22;48626;51.678;5.806;2023-07-13T13:26:23;27.80;99.90
62573;DHT22;48626;51.678;5.806;2023-07-13T13:28:50;28.30;99.90
62573;DHT22;48626;51.678;5.806;2023-07-13T13:31:15;28.90;99.90
62573;DHT22;48626;51.678;5.806;2023-07-13T13:33:43;29.40;99.90
62573;DHT22;48626;51.678;5.806;2023-07-13T13:36:15;30.20;99.90
62573;DHT22;48626;51.678;5.806;2023-07-13T13:38:42;30.40;99.90
62573;DHT22;48626;51.678;5.806;2023-07-13T13:41:10;29.70;99.90
62573;DHT22;48626;51.678;5.806;2023-07-13T13:43:36;28.80;99.90
62573;DHT22;48626;51.678;5.806;2023-07-13T13:46:15;27.80;99.90
62573;DHT22;48626;51.678;5.806;2023-07-13T13:48:41;27.00;99.90
62573;DHT22;48626;51.678;5.806;2023-07-13T13:51:16;26.20;99.90
62573;DHT22;48626;51.678;5.806;2023-07-13T13:53:43;25.60;99.90
62573;DHT22;48626;51.678;5.806;2023-07-13T13:56:09;25.20;99.90
62573;DHT22;48626;51.678;5.806;2023-07-13T13:58:34;24.90;99.90
62573;DHT22;48626;51.678;5.806;2023-07-13T14:01:00;24.70;99.90
62573;DHT22;48626;51.678;5.806;2023-07-13T14:03:26;24.70;99.90
62573;DHT22;48626;51.678;5.806;2023-07-13T14:05:54;24.70;99.90
62573;DHT22;48626;51.678;5.806;2023-07-13T14:08:21;24.60;99.90
62573;DHT22;48626;51.678;5.806;2023-07-13T14:10:49;24.50;99.90
62573;DHT22;48626;51.678;5.806;2023-07-13T14:13:22;24.30;99.90
62573;DHT22;48626;51.678;5.806;2023-07-13T14:15:52;24.20;99.90
62573;DHT22;48626;51.678;5.806;2023-07-13T14:18:18;24.10;99.90
62573;DHT22;48626;51.678;5.806;2023-07-13T14:20:44;23.90;99.90
62573;DHT22;48626;51.678;5.806;2023-07-13T14:23:13;23.80;99.90
62573;DHT22;48626;51.678;5.806;2023-07-13T14:25:39;23.70;99.90
62573;DHT22;48626;51.678;5.806;2023-07-13T14:30:47;23.60;99.90
62573;DHT22;48626;51.678;5.806;2023-07-13T14:33:13;23.60;99.90
62573;DHT22;48626;51.678;5.806;2023-07-13T14:35:39;23.60;99.90
62573;DHT22;48626;51.678;5.806;2023-07-13T14:38:05;23.70;99.90
62573;DHT22;48626;51.678;5.806;2023-07-13T14:40:34;23.70;99.90
62573;DHT22;48626;51.678;5.806;2023-07-13T14:43:00;23.80;99.90
62573;DHT22;48626;51.678;5.806;2023-07-13T14:45:26;23.90;99.90
62573;DHT22;48626;51.678;5.806;2023-07-13T14:47:52;24.00;99.90
62573;DHT22;48626;51.678;5.806;2023-07-13T14:50:20;24.20;99.90
62573;DHT22;48626;51.678;5.806;2023-07-13T14:52:47;24.50;99.90
62573;DHT22;48626;51.678;5.806;2023-07-13T14:55:15;25.10;99.90
62573;DHT22;48626;51.678;5.806;2023-07-13T14:57:41;25.40;99.90
62573;DHT22;48626;51.678;5.806;2023-07-13T15:00:18;26.70;99.90
62573;DHT22;48626;51.678;5.806;2023-07-13T15:02:55;26.90;99.90
62573;DHT22;48626;51.678;5.806;2023-07-13T15:05:24;27.10;99.90
62573;DHT22;48626;51.678;5.806;2023-07-13T15:07:51;28.80;99.90
62573;DHT22;48626;51.678;5.806;2023-07-13T15:10:24;29.10;99.90
62573;DHT22;48626;51.678;5.806;2023-07-13T15:12:58;29.50;99.90
62573;DHT22;48626;51.678;5.806;2023-07-13T15:15:27;29.20;99.90
62573;DHT22;48626;51.678;5.806;2023-07-13T15:17:53;29.00;99.90
62573;DHT22;48626;51.678;5.806;2023-07-13T15:20:25;28.60;99.90
62573;DHT22;48626;51.678;5.806;2023-07-13T15:22:51;28.20;99.90
62573;DHT22;48626;51.678;5.806;2023-07-13T15:25:22;28.60;99.90
62573;DHT22;48626;51.678;5.806;2023-07-13T15:27:50;29.80;99.90
62573;DHT22;48626;51.678;5.806;2023-07-13T15:30:16;29.60;99.90
62573;DHT22;48626;51.678;5.806;2023-07-13T15:32:46;28.80;99.90
62573;DHT22;48626;51.678;5.806;2023-07-13T15:37:40;27.70;99.90
62573;DHT22;48626;51.678;5.806;2023-07-13T15:40:06;27.40;99.90
62573;DHT22;48626;51.678;5.806;2023-07-13T15:42:32;27.20;99.90
62573;DHT22;48626;51.678;5.806;2023-07-13T15:44:58;27.00;99.90
62573;DHT22;48626;51.678;5.806;2023-07-13T15:47:23;26.80;99.90
62573;DHT22;48626;51.678;5.806;2023-07-13T15:49:49;26.50;99.90
62573;DHT22;48626;51.678;5.806;2023-07-13T15:52:20;26.20;99.90
62573;DHT22;48626;51.678;5.806;2023-07-13T15:54:47;26.10;99.90
62573;DHT22;48626;51.678;5.806;2023-07-13T15:57:13;26.10;99.90
62573;DHT22;48626;51.678;5.806;2023-07-13T15:59:40;26.50;99.90
62573;DHT22;48626;51.678;5.806;2023-07-13T16:02:20;26.40;99.90
62573;DHT22;48626;51.678;5.806;2023-07-13T16:04:48;26.10;99.90
62573;DHT22;48626;51.678;5.806;2023-07-13T16:07:16;25.80;99.90
62573;DHT22;48626;51.678;5.806;2023-07-13T16:09:46;26.20;99.90
62573;DHT22;48626;51.678;5.806;2023-07-13T16:12:13;26.00;99.90
62573;DHT22;48626;51.678;5.806;2023-07-13T16:14:40;26.20;99.90
62573;DHT22;48626;51.678;5.806;2023-07-13T16:17:12;26.80;99.90
62573;DHT22;48626;51.678;5.806;2023-07-13T16:19:38;26.90;99.90
62573;DHT22;48626;51.678;5.806;2023-07-13T16:22:04;26.80;99.90
62573;DHT22;48626;51.678;5.806;2023-07-13T16:24:31;26.60;99.90
62573;DHT22;48626;51.678;5.806;2023-07-13T16:26:58;26.40;99.90
62573;DHT22;48626;51.678;5.806;2023-07-13T16:29:29;26.10;99.90